sensor_id;sensor_type;location;lat;lon;timestamp;P1;durP1;ratioP1;P2;durP2;ratioP2
41984;SDS011;28319;48.116;10.818;2024-01-16T00:04:27;2.83;;;1.70;;
41984;SDS011;28319;48.116;10.818;2024-01-16T00:09:33;2.73;;;1.90;;
41984;SDS011;28319;48.116;10.818;2024-01-16T00:14:35;1.90;;;1.63;;
41984;SDS011;28319;48.116;10.818;2024-01-16T00:19:37;1.80;;;1.70;;
41984;SDS011;28319;48.116;10.818;2024-01-16T00:24:41;1.97;;;1.77;;
41984;SDS011;28319;48.116;10.818;2024-01-16T00:29:43;3.00;;;1.63;;
41984;SDS011;28319;48.116;10.818;2024-01-16T00:34:45;1.70;;;1.60;;
41984;SDS011;28319;48.116;10.818;2024-01-16T00:39:48;2.17;;;1.80;;
41984;SDS011;28319;48.116;10.818;2024-01-16T00:44:50;1.97;;;1.77;;
41984;SDS011;28319;48.116;10.818;2024-01-16T00:49:52;2.77;;;1.60;;
41984;SDS011;28319;48.116;10.818;2024-01-16T00:54:55;1.93;;;1.73;;
41984;SDS011;28319;48.116;10.818;2024-01-16T00:59:57;1.90;;;1.70;;
41984;SDS011;28319;48.116;10.818;2024-01-16T01:04:59;2.70;;;1.83;;
41984;SDS011;28319;48.116;10.818;2024-01-16T01:10:03;2.83;;;1.90;;
41984;SDS011;28319;48.116;10.818;2024-01-16T01:15:06;2.20;;;1.73;;
41984;SDS011;28319;48.116;10.818;2024-01-16T01:20:08;2.37;;;1.77;;
41984;SDS011;28319;48.116;10.818;2024-01-16T01:25:13;3.50;;;2.13;;
41984;SDS011;28319;48.116;10.818;2024-01-16T01:30:15;3.00;;;2.30;;
41984;SDS011;28319;48.116;10.818;2024-01-16T01:35:18;2.43;;;1.67;;
41984;SDS011;28319;48.116;10.818;2024-01-16T01:40:22;2.20;;;1.60;;
41984;SDS011;28319;48.116;10.818;2024-01-16T01:45:24;1.60;;;1.30;;
41984;SDS011;28319;48.116;10.818;2024-01-16T01:50:26;2.10;;;1.70;;
41984;SDS011;28319;48.116;10.818;2024-01-16T01:55:29;1.70;;;1.60;;
41984;SDS011;28319;48.116;10.818;2024-01-16T02:00:31;2.13;;;1.70;;
41984;SDS011;28319;48.116;10.818;2024-01-16T02:05:35;1.77;;;1.20;;
41984;SDS011;28319;48.116;10.818;2024-01-16T02:10:40;1.87;;;1.63;;
41984;SDS011;28319;48.116;10.818;2024-01-16T02:15:47;1.70;;;1.60;;
41984;SDS011;28319;48.116;10.818;2024-01-16T02:20:50;1.83;;;1.40;;
41984;SDS011;28319;48.116;10.818;2024-01-16T02:25:53;1.60;;;1.50;;
41984;SDS011;28319;48.116;10.818;2024-01-16T02:30:56;1.67;;;1.53;;
41984;SDS011;28319;48.116;10.818;2024-01-16T02:35:59;2.27;;;2.07;;
41984;SDS011;28319;48.116;10.818;2024-01-16T02:41:03;2.43;;;1.87;;
41984;SDS011;28319;48.116;10.818;2024-01-16T02:46:06;3.07;;;1.37;;
41984;SDS011;28319;48.116;10.818;2024-01-16T02:51:08;2.73;;;1.67;;
41984;SDS011;28319;48.116;10.818;2024-01-16T02:56:12;2.13;;;1.97;;
41984;SDS011;28319;48.116;10.818;2024-01-16T03:01:14;2.20;;;1.63;;
41984;SDS011;28319;48.116;10.818;2024-01-16T03:06:22;1.73;;;1.63;;
41984;SDS011;28319;48.116;10.818;2024-01-16T03:11:26;3.23;;;2.13;;
41984;SDS011;28319;48.116;10.818;2024-01-16T03:16:28;2.00;;;1.80;;
41984;SDS011;28319;48.116;10.818;2024-01-16T03:21:30;1.77;;;1.40;;
41984;SDS011;28319;48.116;10.818;2024-01-16T03:26:33;1.97;;;1.77;;
41984;SDS011;28319;48.116;10.818;2024-01-16T03:31:35;2.53;;;1.40;;
41984;SDS011;28319;48.116;10.818;2024-01-16T03:36:37;1.50;;;1.33;;
41984;SDS011;28319;48.116;10.818;2024-01-16T03:41:41;2.17;;;1.77;;
41984;SDS011;28319;48.116;10.818;2024-01-16T03:46:43;2.03;;;1.87;;
41984;SDS011;28319;48.116;10.818;2024-01-16T03:51:45;1.30;;;1.20;;
41984;SDS011;28319;48.116;10.818;2024-01-16T03:56:49;3.03;;;1.93;;
41984;SDS011;28319;48.116;10.818;2024-01-16T04:01:51;2.67;;;1.90;;
41984;SDS011;28319;48.116;10.818;2024-01-16T04:06:53;3.97;;;2.00;;
41984;SDS011;28319;48.116;10.818;2024-01-16T04:11:56;2.17;;;1.97;;
41984;SDS011;28319;48.116;10.818;2024-01-16T04:16:58;2.33;;;1.60;;
41984;SDS011;28319;48.116;10.818;2024-01-16T04:22:00;1.60;;;1.23;;
41984;SDS011;28319;48.116;10.818;2024-01-16T04:27:03;1.63;;;1.53;;
41984;SDS011;28319;48.116;10.818;2024-01-16T04:32:05;2.47;;;1.60;;
41984;SDS011;28319;48.116;10.818;2024-01-16T04:37:08;1.93;;;1.73;;
41984;SDS011;28319;48.116;10.818;2024-01-16T04:42:11;1.73;;;1.50;;
41984;SDS011;28319;48.116;10.818;2024-01-16T04:47:13;2.93;;;1.80;;
41984;SDS011;28319;48.116;10.818;2024-01-16T04:52:15;2.13;;;1.43;;
41984;SDS011;28319;48.116;10.818;2024-01-16T04:57:18;2.27;;;1.70;;
41984;SDS011;28319;48.116;10.818;2024-01-16T05:02:20;2.87;;;1.77;;
41984;SDS011;28319;48.116;10.818;2024-01-16T05:07:23;1.97;;;1.70;;
41984;SDS011;28319;48.116;10.818;2024-01-16T05:12:27;1.73;;;1.63;;
41984;SDS011;28319;48.116;10.818;2024-01-16T05:17:29;2.03;;;1.77;;
41984;SDS011;28319;48.116;10.818;2024-01-16T05:22:32;3.40;;;1.97;;
41984;SDS011;28319;48.116;10.818;2024-01-16T05:27:35;3.30;;;1.90;;
41984;SDS011;28319;48.116;10.818;2024-01-16T05:32:37;3.83;;;2.20;;
41984;SDS011;28319;48.116;10.818;2024-01-16T05:37:39;3.40;;;1.80;;
41984;SDS011;28319;48.116;10.818;2024-01-16T05:42:42;1.80;;;1.70;;
41984;SDS011;28319;48.116;10.818;2024-01-16T05:47:48;4.13;;;2.80;;
41984;SDS011;28319;48.116;10.818;2024-01-16T05:52:50;3.07;;;2.37;;
41984;SDS011;28319;48.116;10.818;2024-01-16T05:57:54;2.33;;;2.00;;
41984;SDS011;28319;48.116;10.818;2024-01-16T06:02:56;4.10;;;2.30;;
41984;SDS011;28319;48.116;10.818;2024-01-16T06:07:57;3.93;;;2.00;;
41984;SDS011;28319;48.116;10.818;2024-01-16T06:13:01;2.30;;;1.80;;
41984;SDS011;28319;48.116;10.818;2024-01-16T06:18:03;3.57;;;2.23;;
41984;SDS011;28319;48.116;10.818;2024-01-16T06:23:05;1.83;;;1.73;;
41984;SDS011;28319;48.116;10.818;2024-01-16T06:28:08;1.60;;;1.50;;
41984;SDS011;28319;48.116;10.818;2024-01-16T06:33:10;2.07;;;1.83;;
41984;SDS011;28319;48.116;10.818;2024-01-16T06:38:12;3.63;;;2.20;;
41984;SDS011;28319;48.116;10.818;2024-01-16T06:43:16;2.17;;;1.70;;
41984;SDS011;28319;48.116;10.818;2024-01-16T06:48:18;4.10;;;2.20;;
41984;SDS011;28319;48.116;10.818;2024-01-16T06:53:20;3.00;;;2.00;;
41984;SDS011;28319;48.116;10.818;2024-01-16T06:58:23;3.87;;;2.47;;
41984;SDS011;28319;48.116;10.818;2024-01-16T07:03:25;3.83;;;1.77;;
41984;SDS011;28319;48.116;10.818;2024-01-16T07:08:27;2.03;;;1.83;;
41984;SDS011;28319;48.116;10.818;2024-01-16T07:13:31;3.03;;;2.20;;
41984;SDS011;28319;48.116;10.818;2024-01-16T07:18:32;3.20;;;2.30;;
41984;SDS011;28319;48.116;10.818;2024-01-16T07:23:34;2.83;;;2.40;;
41984;SDS011;28319;48.116;10.818;2024-01-16T07:28:38;2.60;;;2.40;;
41984;SDS011;28319;48.116;10.818;2024-01-16T07:33:40;5.73;;;3.87;;
41984;SDS011;28319;48.116;10.818;2024-01-16T07:38:42;3.80;;;2.90;;
41984;SDS011;28319;48.116;10.818;2024-01-16T07:43:45;4.70;;;3.10;;
41984;SDS011;28319;48.116;10.818;2024-01-16T07:48:48;4.20;;;2.80;;
41984;SDS011;28319;48.116;10.818;2024-01-16T07:54:03;2.87;;;2.10;;
41984;SDS011;28319;48.116;10.818;2024-01-16T07:59:08;2.27;;;2.07;;
41984;SDS011;28319;48.116;10.818;2024-01-16T08:04:10;3.20;;;2.00;;
41984;SDS011;28319;48.116;10.818;2024-01-16T08:09:12;4.97;;;2.27;;
41984;SDS011;28319;48.116;10.818;2024-01-16T08:14:15;5.27;;;2.60;;
41984;SDS011;28319;48.116;10.818;2024-01-16T08:19:17;4.13;;;2.17;;
41984;SDS011;28319;48.116;10.818;2024-01-16T08:24:19;4.73;;;2.47;;
41984;SDS011;28319;48.116;10.818;2024-01-16T08:29:23;2.17;;;2.00;;
41984;SDS011;28319;48.116;10.818;2024-01-16T08:34:25;2.37;;;2.17;;
41984;SDS011;28319;48.116;10.818;2024-01-16T08:39:27;4.50;;;2.17;;
41984;SDS011;28319;48.116;10.818;2024-01-16T08:44:34;5.73;;;2.10;;
41984;SDS011;28319;48.116;10.818;2024-01-16T08:49:36;4.70;;;2.30;;
41984;SDS011;28319;48.116;10.818;2024-01-16T08:54:38;5.37;;;2.83;;
41984;SDS011;28319;48.116;10.818;2024-01-16T08:59:42;2.13;;;1.97;;
41984;SDS011;28319;48.116;10.818;2024-01-16T09:04:44;4.53;;;2.43;;
41984;SDS011;28319;48.116;10.818;2024-01-16T09:09:47;5.07;;;2.80;;
41984;SDS011;28319;48.116;10.818;2024-01-16T09:14:51;5.93;;;2.53;;
41984;SDS011;28319;48.116;10.818;2024-01-16T09:19:52;3.40;;;2.70;;
41984;SDS011;28319;48.116;10.818;2024-01-16T09:24:54;2.67;;;2.10;;
41984;SDS011;28319;48.116;10.818;2024-01-16T09:29:58;2.87;;;2.10;;
41984;SDS011;28319;48.116;10.818;2024-01-16T09:35:00;2.67;;;2.47;;
41984;SDS011;28319;48.116;10.818;2024-01-16T09:40:03;4.33;;;2.50;;
41984;SDS011;28319;48.116;10.818;2024-01-16T09:45:07;3.30;;;2.17;;
41984;SDS011;28319;48.116;10.818;2024-01-16T09:50:10;2.63;;;2.20;;
41984;SDS011;28319;48.116;10.818;2024-01-16T09:55:13;3.33;;;2.73;;
41984;SDS011;28319;48.116;10.818;2024-01-16T10:00:17;4.70;;;2.67;;
41984;SDS011;28319;48.116;10.818;2024-01-16T10:05:20;2.70;;;2.50;;
41984;SDS011;28319;48.116;10.818;2024-01-16T10:10:22;3.37;;;2.57;;
41984;SDS011;28319;48.116;10.818;2024-01-16T10:15:29;3.60;;;2.60;;
41984;SDS011;28319;48.116;10.818;2024-01-16T10:20:33;2.53;;;2.20;;
41984;SDS011;28319;48.116;10.818;2024-01-16T10:25:36;3.37;;;2.10;;
41984;SDS011;28319;48.116;10.818;2024-01-16T10:30:40;3.03;;;2.43;;
41984;SDS011;28319;48.116;10.818;2024-01-16T10:35:42;3.20;;;2.57;;
41984;SDS011;28319;48.116;10.818;2024-01-16T10:40:44;4.90;;;3.10;;
41984;SDS011;28319;48.116;10.818;2024-01-16T10:45:55;2.67;;;2.47;;
41984;SDS011;28319;48.116;10.818;2024-01-16T10:51:09;3.70;;;2.50;;
41984;SDS011;28319;48.116;10.818;2024-01-16T10:56:13;2.87;;;2.60;;
41984;SDS011;28319;48.116;10.818;2024-01-16T11:01:19;4.67;;;2.73;;
41984;SDS011;28319;48.116;10.818;2024-01-16T11:06:22;3.23;;;2.93;;
41984;SDS011;28319;48.116;10.818;2024-01-16T11:11:25;3.47;;;2.27;;
41984;SDS011;28319;48.116;10.818;2024-01-16T11:16:31;2.40;;;2.20;;
41984;SDS011;28319;48.116;10.818;2024-01-16T11:21:33;3.43;;;2.47;;
41984;SDS011;28319;48.116;10.818;2024-01-16T11:26:39;3.43;;;2.63;;
41984;SDS011;28319;48.116;10.818;2024-01-16T11:31:42;4.60;;;3.00;;
41984;SDS011;28319;48.116;10.818;2024-01-16T11:36:49;6.50;;;3.93;;
41984;SDS011;28319;48.116;10.818;2024-01-16T11:41:54;4.07;;;2.90;;
41984;SDS011;28319;48.116;10.818;2024-01-16T11:47:02;3.30;;;2.50;;
41984;SDS011;28319;48.116;10.818;2024-01-16T11:52:04;4.40;;;3.03;;
41984;SDS011;28319;48.116;10.818;2024-01-16T11:57:19;2.87;;;2.60;;
41984;SDS011;28319;48.116;10.818;2024-01-16T12:08:03;2.80;;;2.10;;
41984;SDS011;28319;48.116;10.818;2024-01-16T12:13:06;3.60;;;2.40;;
41984;SDS011;28319;48.116;10.818;2024-01-16T12:18:10;3.07;;;2.60;;
41984;SDS011;28319;48.116;10.818;2024-01-16T12:23:19;3.93;;;2.30;;
41984;SDS011;28319;48.116;10.818;2024-01-16T12:28:23;2.87;;;2.23;;
41984;SDS011;28319;48.116;10.818;2024-01-16T12:33:26;2.30;;;2.00;;
41984;SDS011;28319;48.116;10.818;2024-01-16T12:38:28;2.77;;;1.93;;
41984;SDS011;28319;48.116;10.818;2024-01-16T12:43:31;2.27;;;2.07;;
41984;SDS011;28319;48.116;10.818;2024-01-16T12:48:35;2.40;;;1.93;;
41984;SDS011;28319;48.116;10.818;2024-01-16T12:53:37;3.00;;;2.50;;
41984;SDS011;28319;48.116;10.818;2024-01-16T12:58:40;4.27;;;3.00;;
41984;SDS011;28319;48.116;10.818;2024-01-16T13:03:43;2.80;;;2.40;;
41984;SDS011;28319;48.116;10.818;2024-01-16T13:08:45;5.67;;;2.97;;
41984;SDS011;28319;48.116;10.818;2024-01-16T13:13:47;18.20;;;9.00;;
41984;SDS011;28319;48.116;10.818;2024-01-16T13:18:51;5.47;;;2.93;;
41984;SDS011;28319;48.116;10.818;2024-01-16T13:24:02;4.13;;;2.80;;
41984;SDS011;28319;48.116;10.818;2024-01-16T13:29:04;6.80;;;3.63;;
41984;SDS011;28319;48.116;10.818;2024-01-16T13:34:08;2.50;;;2.30;;
41984;SDS011;28319;48.116;10.818;2024-01-16T13:39:10;15.10;;;6.43;;
41984;SDS011;28319;48.116;10.818;2024-01-16T13:44:12;21.63;;;12.07;;
41984;SDS011;28319;48.116;10.818;2024-01-16T13:49:16;9.03;;;5.13;;
41984;SDS011;28319;48.116;10.818;2024-01-16T13:54:18;6.83;;;3.57;;
41984;SDS011;28319;48.116;10.818;2024-01-16T13:59:20;3.27;;;2.97;;
41984;SDS011;28319;48.116;10.818;2024-01-16T14:04:23;12.10;;;6.30;;
41984;SDS011;28319;48.116;10.818;2024-01-16T14:09:25;55.43;;;18.80;;
41984;SDS011;28319;48.116;10.818;2024-01-16T14:14:27;19.87;;;9.67;;
41984;SDS011;28319;48.116;10.818;2024-01-16T14:19:30;5.60;;;3.60;;
41984;SDS011;28319;48.116;10.818;2024-01-16T14:24:32;4.80;;;3.70;;
41984;SDS011;28319;48.116;10.818;2024-01-16T14:29:36;13.80;;;7.03;;
41984;SDS011;28319;48.116;10.818;2024-01-16T14:34:41;9.10;;;4.30;;
41984;SDS011;28319;48.116;10.818;2024-01-16T14:39:43;3.83;;;2.60;;
41984;SDS011;28319;48.116;10.818;2024-01-16T14:44:45;3.87;;;2.73;;
41984;SDS011;28319;48.116;10.818;2024-01-16T14:49:48;4.43;;;2.83;;
41984;SDS011;28319;48.116;10.818;2024-01-16T14:54:50;5.90;;;3.43;;
41984;SDS011;28319;48.116;10.818;2024-01-16T14:59:52;3.00;;;2.70;;
41984;SDS011;28319;48.116;10.818;2024-01-16T15:04:56;4.50;;;2.80;;
41984;SDS011;28319;48.116;10.818;2024-01-16T15:09:58;3.00;;;2.70;;
41984;SDS011;28319;48.116;10.818;2024-01-16T15:15:01;3.70;;;2.87;;
41984;SDS011;28319;48.116;10.818;2024-01-16T15:20:05;2.93;;;2.50;;
41984;SDS011;28319;48.116;10.818;2024-01-16T15:25:08;5.07;;;3.13;;
41984;SDS011;28319;48.116;10.818;2024-01-16T15:30:10;3.40;;;2.80;;
41984;SDS011;28319;48.116;10.818;2024-01-16T15:35:15;5.37;;;3.20;;
41984;SDS011;28319;48.116;10.818;2024-01-16T15:40:17;6.63;;;4.53;;
41984;SDS011;28319;48.116;10.818;2024-01-16T15:45:19;18.00;;;10.47;;
41984;SDS011;28319;48.116;10.818;2024-01-16T15:50:23;40.17;;;19.93;;
41984;SDS011;28319;48.116;10.818;2024-01-16T15:55:26;3.87;;;3.47;;
41984;SDS011;28319;48.116;10.818;2024-01-16T16:00:28;8.10;;;5.40;;
41984;SDS011;28319;48.116;10.818;2024-01-16T16:05:32;13.40;;;7.97;;
41984;SDS011;28319;48.116;10.818;2024-01-16T16:10:34;14.23;;;6.70;;
41984;SDS011;28319;48.116;10.818;2024-01-16T16:15:39;6.27;;;4.60;;
41984;SDS011;28319;48.116;10.818;2024-01-16T16:20:42;9.20;;;5.30;;
41984;SDS011;28319;48.116;10.818;2024-01-16T16:25:45;9.67;;;6.00;;
41984;SDS011;28319;48.116;10.818;2024-01-16T16:30:47;8.83;;;5.27;;
41984;SDS011;28319;48.116;10.818;2024-01-16T16:35:51;11.30;;;6.40;;
41984;SDS011;28319;48.116;10.818;2024-01-16T16:40:53;8.43;;;5.50;;
41984;SDS011;28319;48.116;10.818;2024-01-16T16:45:55;7.80;;;4.97;;
41984;SDS011;28319;48.116;10.818;2024-01-16T16:50:58;6.60;;;4.80;;
41984;SDS011;28319;48.116;10.818;2024-01-16T16:56:00;5.90;;;4.83;;
41984;SDS011;28319;48.116;10.818;2024-01-16T17:01:02;7.70;;;4.97;;
41984;SDS011;28319;48.116;10.818;2024-01-16T17:06:05;8.47;;;5.23;;
41984;SDS011;28319;48.116;10.818;2024-01-16T17:11:08;8.60;;;6.50;;
41984;SDS011;28319;48.116;10.818;2024-01-16T17:16:10;8.83;;;5.23;;
41984;SDS011;28319;48.116;10.818;2024-01-16T17:21:14;6.77;;;4.60;;
41984;SDS011;28319;48.116;10.818;2024-01-16T17:26:16;7.40;;;4.87;;
41984;SDS011;28319;48.116;10.818;2024-01-16T17:31:19;7.87;;;4.90;;
41984;SDS011;28319;48.116;10.818;2024-01-16T17:36:22;9.07;;;5.67;;
41984;SDS011;28319;48.116;10.818;2024-01-16T17:41:24;5.80;;;3.80;;
41984;SDS011;28319;48.116;10.818;2024-01-16T17:46:28;10.20;;;6.83;;
41984;SDS011;28319;48.116;10.818;2024-01-16T17:51:32;6.97;;;5.27;;
41984;SDS011;28319;48.116;10.818;2024-01-16T17:56:34;6.40;;;4.77;;
41984;SDS011;28319;48.116;10.818;2024-01-16T18:01:37;6.60;;;4.67;;
41984;SDS011;28319;48.116;10.818;2024-01-16T18:06:40;7.27;;;4.30;;
41984;SDS011;28319;48.116;10.818;2024-01-16T18:11:52;5.87;;;4.47;;
41984;SDS011;28319;48.116;10.818;2024-01-16T18:16:55;6.37;;;4.93;;
41984;SDS011;28319;48.116;10.818;2024-01-16T18:21:59;8.53;;;4.93;;
41984;SDS011;28319;48.116;10.818;2024-01-16T18:27:02;9.80;;;5.07;;
41984;SDS011;28319;48.116;10.818;2024-01-16T18:32:07;7.40;;;5.03;;
41984;SDS011;28319;48.116;10.818;2024-01-16T18:37:11;9.87;;;4.90;;
41984;SDS011;28319;48.116;10.818;2024-01-16T18:42:14;8.47;;;5.27;;
41984;SDS011;28319;48.116;10.818;2024-01-16T18:47:16;5.60;;;4.67;;
41984;SDS011;28319;48.116;10.818;2024-01-16T18:52:22;9.10;;;5.90;;
41984;SDS011;28319;48.116;10.818;2024-01-16T18:57:24;7.80;;;5.33;;
41984;SDS011;28319;48.116;10.818;2024-01-16T19:02:26;8.13;;;5.20;;
41984;SDS011;28319;48.116;10.818;2024-01-16T19:07:29;7.90;;;5.17;;
41984;SDS011;28319;48.116;10.818;2024-01-16T19:12:33;7.13;;;5.37;;
41984;SDS011;28319;48.116;10.818;2024-01-16T19:17:35;8.30;;;5.53;;
41984;SDS011;28319;48.116;10.818;2024-01-16T19:22:40;8.30;;;5.10;;
41984;SDS011;28319;48.116;10.818;2024-01-16T19:27:44;7.67;;;4.90;;
41984;SDS011;28319;48.116;10.818;2024-01-16T19:32:47;9.53;;;5.53;;
41984;SDS011;28319;48.116;10.818;2024-01-16T19:37:51;8.37;;;5.20;;
41984;SDS011;28319;48.116;10.818;2024-01-16T19:42:53;8.70;;;5.40;;
41984;SDS011;28319;48.116;10.818;2024-01-16T19:47:55;7.93;;;5.07;;
41984;SDS011;28319;48.116;10.818;2024-01-16T19:52:58;8.90;;;5.43;;
41984;SDS011;28319;48.116;10.818;2024-01-16T19:58:03;8.17;;;5.53;;
41984;SDS011;28319;48.116;10.818;2024-01-16T20:03:05;7.40;;;5.53;;
41984;SDS011;28319;48.116;10.818;2024-01-16T20:08:10;9.07;;;5.23;;
41984;SDS011;28319;48.116;10.818;2024-01-16T20:13:12;11.70;;;5.73;;
41984;SDS011;28319;48.116;10.818;2024-01-16T20:18:14;9.10;;;5.40;;
41984;SDS011;28319;48.116;10.818;2024-01-16T20:23:17;8.33;;;5.77;;
41984;SDS011;28319;48.116;10.818;2024-01-16T20:28:19;7.00;;;5.30;;
41984;SDS011;28319;48.116;10.818;2024-01-16T20:33:21;7.33;;;4.70;;
41984;SDS011;28319;48.116;10.818;2024-01-16T20:38:26;8.17;;;4.93;;
41984;SDS011;28319;48.116;10.818;2024-01-16T20:43:28;6.37;;;4.63;;
41984;SDS011;28319;48.116;10.818;2024-01-16T20:48:30;8.40;;;5.10;;
41984;SDS011;28319;48.116;10.818;2024-01-16T20:53:34;7.93;;;5.23;;
41984;SDS011;28319;48.116;10.818;2024-01-16T20:58:36;7.60;;;4.43;;
41984;SDS011;28319;48.116;10.818;2024-01-16T21:03:40;7.67;;;4.43;;
41984;SDS011;28319;48.116;10.818;2024-01-16T21:08:45;6.87;;;4.50;;
41984;SDS011;28319;48.116;10.818;2024-01-16T21:13:47;7.23;;;5.00;;
41984;SDS011;28319;48.116;10.818;2024-01-16T21:18:49;9.97;;;5.13;;
41984;SDS011;28319;48.116;10.818;2024-01-16T21:23:52;8.90;;;4.93;;
41984;SDS011;28319;48.116;10.818;2024-01-16T21:28:54;9.67;;;5.27;;
41984;SDS011;28319;48.116;10.818;2024-01-16T21:33:56;9.43;;;4.87;;
41984;SDS011;28319;48.116;10.818;2024-01-16T21:39:00;10.23;;;5.10;;
41984;SDS011;28319;48.116;10.818;2024-01-16T21:44:03;7.33;;;4.70;;
41984;SDS011;28319;48.116;10.818;2024-01-16T21:49:06;6.73;;;4.77;;
41984;SDS011;28319;48.116;10.818;2024-01-16T21:54:09;9.07;;;5.80;;
41984;SDS011;28319;48.116;10.818;2024-01-16T21:59:11;8.10;;;4.30;;
41984;SDS011;28319;48.116;10.818;2024-01-16T22:04:13;8.03;;;5.23;;
41984;SDS011;28319;48.116;10.818;2024-01-16T22:09:16;10.83;;;5.20;;
41984;SDS011;28319;48.116;10.818;2024-01-16T22:14:21;6.67;;;4.77;;
41984;SDS011;28319;48.116;10.818;2024-01-16T22:19:23;6.50;;;4.57;;
41984;SDS011;28319;48.116;10.818;2024-01-16T22:24:27;8.90;;;5.50;;
41984;SDS011;28319;48.116;10.818;2024-01-16T22:29:29;9.47;;;5.00;;
41984;SDS011;28319;48.116;10.818;2024-01-16T22:34:31;11.70;;;5.40;;
41984;SDS011;28319;48.116;10.818;2024-01-16T22:39:35;10.27;;;5.77;;
41984;SDS011;28319;48.116;10.818;2024-01-16T22:44:39;8.27;;;5.13;;
41984;SDS011;28319;48.116;10.818;2024-01-16T22:49:41;8.53;;;5.73;;
41984;SDS011;28319;48.116;10.818;2024-01-16T22:54:44;5.47;;;4.63;;
41984;SDS011;28319;48.116;10.818;2024-01-16T22:59:47;9.60;;;5.47;;
41984;SDS011;28319;48.116;10.818;2024-01-16T23:04:49;7.63;;;4.77;;
41984;SDS011;28319;48.116;10.818;2024-01-16T23:09:53;7.90;;;5.03;;
41984;SDS011;28319;48.116;10.818;2024-01-16T23:14:55;9.03;;;5.27;;
41984;SDS011;28319;48.116;10.818;2024-01-16T23:19:58;8.43;;;5.70;;
41984;SDS011;28319;48.116;10.818;2024-01-16T23:25:02;9.27;;;5.47;;
41984;SDS011;28319;48.116;10.818;2024-01-16T23:30:06;9.93;;;5.97;;
41984;SDS011;28319;48.116;10.818;2024-01-16T23:35:09;7.03;;;4.80;;
41984;SDS011;28319;48.116;10.818;2024-01-16T23:40:13;11.70;;;5.83;;
41984;SDS011;28319;48.116;10.818;2024-01-16T23:45:15;9.93;;;5.77;;
41984;SDS011;28319;48.116;10.818;2024-01-16T23:50:18;7.10;;;5.53;;
41984;SDS011;28319;48.116;10.818;2024-01-16T23:55:22;9.93;;;6.40;;
